createdAt,value
2017-09-22T00:01:10.221Z,15.60
2017-09-22T00:03:41.200Z,15.59
2017-09-22T00:06:10.339Z,15.60
2017-09-22T00:08:40.281Z,15.60
2017-09-22T00:11:09.448Z,15.58
2017-09-22T00:13:39.805Z,15.54
2017-09-22T00:16:08.941Z,15.54
2017-09-22T00:18:38.275Z,15.53
2017-09-22T00:21:07.402Z,15.49
2017-09-22T00:23:36.862Z,15.48
2017-09-22T00:26:06.359Z,15.49
2017-09-22T00:28:35.535Z,15.46
2017-09-22T00:31:05.462Z,15.40
2017-09-22T00:33:35.131Z,15.36
2017-09-22T00:36:05.175Z,15.32
2017-09-22T00:38:34.436Z,15.30
2017-09-22T00:41:04.293Z,15.28
2017-09-22T00:43:34.149Z,15.29
2017-09-22T00:46:03.368Z,15.23
2017-09-22T00:48:33.690Z,15.21
2017-09-22T00:51:03.783Z,15.17
2017-09-22T00:53:33.967Z,15.15
2017-09-22T00:56:03.317Z,15.13
2017-09-22T00:58:33.924Z,15.09
2017-09-22T01:01:03.200Z,15.16
2017-09-22T01:03:36.020Z,15.20
2017-09-22T01:06:05.253Z,15.22
2017-09-22T01:08:34.557Z,15.19
2017-09-22T01:11:04.835Z,15.18
2017-09-22T01:13:34.022Z,15.12
2017-09-22T01:16:03.250Z,15.10
2017-09-22T01:18:32.826Z,15.00
2017-09-22T01:21:02.020Z,14.97
2017-09-22T01:23:31.225Z,14.92
2017-09-22T01:26:00.545Z,14.84
2017-09-22T01:28:29.741Z,14.80
2017-09-22T01:30:58.890Z,14.78
2017-09-22T01:33:28.048Z,14.79
2017-09-22T01:35:57.226Z,14.74
2017-09-22T01:38:26.404Z,14.71
2017-09-22T01:40:55.837Z,14.72
2017-09-22T01:43:24.940Z,14.69
2017-09-22T01:45:54.064Z,14.65
2017-09-22T01:48:23.361Z,14.57
2017-09-22T01:50:52.478Z,14.49
2017-09-22T01:53:22.396Z,14.53
2017-09-22T01:55:51.579Z,14.55
2017-09-22T01:58:21.843Z,14.54
2017-09-22T02:00:51.008Z,14.55
2017-09-22T02:03:21.026Z,14.55
2017-09-22T02:05:50.110Z,14.48
2017-09-22T02:08:19.257Z,14.48
2017-09-22T02:10:48.403Z,14.48
2017-09-22T02:13:17.530Z,14.52
2017-09-22T02:15:46.649Z,14.50
2017-09-22T02:18:16.871Z,14.53
2017-09-22T02:20:46.017Z,14.54
2017-09-22T02:23:15.153Z,14.59
2017-09-22T02:25:44.312Z,14.59
2017-09-22T02:28:13.405Z,14.54
2017-09-22T02:30:42.507Z,14.54
2017-09-22T02:33:11.883Z,14.56
2017-09-22T02:35:42.161Z,14.56
2017-09-22T02:38:12.325Z,14.52
2017-09-22T02:40:41.459Z,14.48
2017-09-22T02:43:10.565Z,14.47
2017-09-22T02:45:39.894Z,14.49
2017-09-22T02:48:09.014Z,14.44
2017-09-22T02:50:38.262Z,14.42
2017-09-22T02:53:08.594Z,14.47
2017-09-22T02:55:38.071Z,14.49
2017-09-22T02:58:07.344Z,14.46
2017-09-22T03:00:37.974Z,14.42
2017-09-22T03:03:07.865Z,14.37
2017-09-22T03:05:37.783Z,14.33
2017-09-22T03:08:07.418Z,14.34
2017-09-22T03:10:36.558Z,14.31
2017-09-22T03:13:05.739Z,14.27
2017-09-22T03:15:35.124Z,14.23
2017-09-22T03:18:04.259Z,14.17
2017-09-22T03:20:33.430Z,14.18
2017-09-22T03:23:05.073Z,14.15
2017-09-22T03:25:34.215Z,14.14
2017-09-22T03:28:03.351Z,14.10
2017-09-22T03:30:32.553Z,14.11
2017-09-22T03:33:01.728Z,14.16
2017-09-22T03:35:31.697Z,14.17
2017-09-22T03:38:01.128Z,14.17
2017-09-22T03:40:31.085Z,14.20
2017-09-22T03:43:00.267Z,14.16
2017-09-22T03:45:29.747Z,14.22
2017-09-22T03:47:58.892Z,14.23
2017-09-22T03:50:28.804Z,14.16
2017-09-22T03:52:58.164Z,14.20
2017-09-22T03:55:28.052Z,14.14
2017-09-22T03:57:57.186Z,14.09
2017-09-22T04:00:26.486Z,14.04
2017-09-22T04:02:55.594Z,14.03
2017-09-22T04:05:24.697Z,13.96
2017-09-22T04:07:54.772Z,13.92
2017-09-22T04:10:23.883Z,13.83
2017-09-22T04:12:54.030Z,13.84
2017-09-22T04:15:23.348Z,13.89
2017-09-22T04:17:52.480Z,13.89
2017-09-22T04:20:21.592Z,13.89
2017-09-22T04:22:51.098Z,13.74
2017-09-22T04:25:20.216Z,13.69
2017-09-22T04:27:49.373Z,13.69
2017-09-22T04:30:19.463Z,13.66
2017-09-22T04:32:48.551Z,13.64
2017-09-22T04:35:17.694Z,13.58
2017-09-22T04:37:47.160Z,13.59
2017-09-22T04:40:16.286Z,13.61
2017-09-22T04:42:45.401Z,13.62
2017-09-22T04:45:15.366Z,13.65
2017-09-22T04:47:45.229Z,13.64
2017-09-22T04:50:14.410Z,13.57
2017-09-22T04:52:43.755Z,13.59
2017-09-22T04:55:13.645Z,13.61
2017-09-22T04:57:42.790Z,13.64
2017-09-22T05:00:12.343Z,13.63
2017-09-22T05:02:43.178Z,13.62
2017-09-22T05:05:12.789Z,13.60
2017-09-22T05:07:41.933Z,13.58
2017-09-22T05:10:11.806Z,13.52
2017-09-22T05:12:40.901Z,13.39
2017-09-22T05:15:10.510Z,13.35
2017-09-22T05:17:39.645Z,13.30
2017-09-22T05:20:08.797Z,13.35
2017-09-22T05:22:38.063Z,13.37
2017-09-22T05:25:07.217Z,13.33
2017-09-22T05:27:37.120Z,13.38
2017-09-22T05:30:06.506Z,13.42
2017-09-22T05:32:35.658Z,13.40
2017-09-22T05:35:04.864Z,13.51
2017-09-22T05:37:34.159Z,13.54
2017-09-22T05:40:03.390Z,13.53
2017-09-22T05:42:32.584Z,13.64
2017-09-22T05:45:03.036Z,13.76
2017-09-22T05:47:32.226Z,13.87
2017-09-22T05:50:01.404Z,14.00
2017-09-22T05:52:31.743Z,14.14
2017-09-22T05:55:00.928Z,14.29
2017-09-22T05:57:30.151Z,14.42
2017-09-22T05:59:59.528Z,14.59
2017-09-22T06:02:28.634Z,14.67
2017-09-22T06:04:57.774Z,14.64
2017-09-22T06:07:27.209Z,14.66
2017-09-22T06:09:56.384Z,14.70
2017-09-22T06:12:25.510Z,14.77
2017-09-22T06:14:54.985Z,14.74
2017-09-22T06:17:24.090Z,14.66
2017-09-22T06:19:53.188Z,14.62
2017-09-22T06:22:22.704Z,14.67
2017-09-22T06:24:54.028Z,14.67
2017-09-22T06:27:23.473Z,14.63
2017-09-22T06:29:52.575Z,14.67
2017-09-22T06:32:21.775Z,14.68
2017-09-22T06:34:51.162Z,14.64
2017-09-22T06:37:20.324Z,14.68
2017-09-22T06:39:49.450Z,14.69
2017-09-22T06:42:19.542Z,14.61
2017-09-22T06:44:48.767Z,14.71
2017-09-22T06:47:17.982Z,14.86
2017-09-22T06:49:47.549Z,15.02
2017-09-22T06:52:16.723Z,15.18
2017-09-22T06:54:46.122Z,15.29
2017-09-22T06:57:15.678Z,15.47
2017-09-22T06:59:45.586Z,15.71
2017-09-22T07:02:15.529Z,15.75
2017-09-22T07:04:44.753Z,15.84
2017-09-22T07:07:14.054Z,15.75
2017-09-22T07:09:43.186Z,15.71
2017-09-22T07:12:12.606Z,15.60
2017-09-22T07:14:42.485Z,15.72
2017-09-22T07:17:11.647Z,15.67
2017-09-22T07:19:41.062Z,15.77
2017-09-22T07:22:11.033Z,15.71
2017-09-22T07:24:40.238Z,15.84
2017-09-22T07:27:09.714Z,15.85
2017-09-22T07:29:38.970Z,15.80
2017-09-22T07:32:09.349Z,15.84
2017-09-22T07:34:41.002Z,15.88
2017-09-22T07:37:10.170Z,15.93
2017-09-22T07:39:40.095Z,16.04
2017-09-22T07:42:09.386Z,16.15
2017-09-22T07:44:38.605Z,16.22
2017-09-22T07:47:07.832Z,16.26
2017-09-22T07:49:37.519Z,16.02
2017-09-22T07:52:06.709Z,16.01
2017-09-22T07:54:37.077Z,16.12
2017-09-22T07:57:06.425Z,16.05
2017-09-22T07:59:36.751Z,16.13
2017-09-22T08:02:05.963Z,16.00
2017-09-22T08:04:35.281Z,16.08
2017-09-22T08:07:04.624Z,16.06
2017-09-22T08:09:33.815Z,16.12
2017-09-22T08:12:03.077Z,16.15
2017-09-22T08:14:33.244Z,16.40
2017-09-22T08:17:02.480Z,16.53
2017-09-22T08:19:32.411Z,16.73
2017-09-22T08:22:01.685Z,16.80
2017-09-22T08:24:32.022Z,16.79
2017-09-22T08:27:01.543Z,16.94
2017-09-22T08:29:31.551Z,17.15
2017-09-22T08:32:00.779Z,17.23
2017-09-22T08:34:30.758Z,17.35
2017-09-22T08:37:00.191Z,17.36
2017-09-22T08:39:29.381Z,17.40
2017-09-22T08:41:59.915Z,17.55
2017-09-22T08:44:29.210Z,17.71
2017-09-22T08:46:58.381Z,17.96
2017-09-22T08:49:27.832Z,18.49
2017-09-22T08:51:57.718Z,19.05
2017-09-22T08:54:27.654Z,19.49
2017-09-22T08:56:57.159Z,19.60
2017-09-22T08:59:27.059Z,19.52
2017-09-22T09:01:56.304Z,19.84
2017-09-22T09:04:27.412Z,19.99
2017-09-22T09:06:57.388Z,19.95
2017-09-22T09:09:26.540Z,19.95
2017-09-22T09:11:55.810Z,19.60
2017-09-22T09:14:25.078Z,19.75
2017-09-22T09:16:56.355Z,20.09
2017-09-22T09:19:26.079Z,20.24
2017-09-22T09:22:01.735Z,20.18
2017-09-22T09:24:31.196Z,19.85
2017-09-22T09:27:01.190Z,20.56
2017-09-22T09:29:32.134Z,21.01
2017-09-22T09:32:02.222Z,21.71
2017-09-22T09:34:31.427Z,21.77
2017-09-22T09:37:00.666Z,22.49
2017-09-22T09:39:29.815Z,22.43
2017-09-22T09:42:00.026Z,22.44
2017-09-22T09:44:29.947Z,22.76
2017-09-22T09:46:59.097Z,22.65
2017-09-22T09:49:29.333Z,22.37
2017-09-22T09:51:58.455Z,22.54
2017-09-22T09:54:27.590Z,22.35
2017-09-22T09:56:56.909Z,21.98
2017-09-22T09:59:29.937Z,22.05
2017-09-22T10:01:59.996Z,22.19
2017-09-22T10:04:30.779Z,22.62
2017-09-22T10:07:01.125Z,22.53
2017-09-22T10:09:34.344Z,22.90
2017-09-22T10:12:04.625Z,22.68
2017-09-22T10:14:37.848Z,22.67
2017-09-22T10:17:07.377Z,21.74
2017-09-22T10:19:37.195Z,21.67
2017-09-22T10:22:07.104Z,21.39
2017-09-22T10:24:38.107Z,21.32
2017-09-22T10:27:07.355Z,21.61
2017-09-22T10:29:36.542Z,21.62
2017-09-22T10:32:06.735Z,21.92
2017-09-22T10:34:35.943Z,22.01
2017-09-22T10:37:05.197Z,22.64
2017-09-22T10:39:34.495Z,23.09
2017-09-22T10:42:03.699Z,23.25
2017-09-22T10:44:33.715Z,23.74
2017-09-22T10:47:03.957Z,23.68
2017-09-22T10:49:33.176Z,23.44
2017-09-22T10:52:02.353Z,23.27
2017-09-22T10:54:32.002Z,23.34
2017-09-22T10:57:01.641Z,23.35
2017-09-22T10:59:30.765Z,23.39
2017-09-22T11:02:00.356Z,23.84
2017-09-22T11:04:31.340Z,23.89
2017-09-22T11:07:00.584Z,23.56
2017-09-22T11:09:30.002Z,22.34
2017-09-22T11:11:59.130Z,21.22
2017-09-22T11:14:28.281Z,21.12
2017-09-22T11:16:58.342Z,21.16
2017-09-22T11:19:27.487Z,20.39
2017-09-22T11:21:56.606Z,19.38
2017-09-22T11:24:26.055Z,19.63
2017-09-22T11:26:55.141Z,19.40
2017-09-22T11:29:24.243Z,19.01
2017-09-22T11:31:53.013Z,18.69
2017-09-22T11:34:22.152Z,18.61
2017-09-22T11:36:51.260Z,19.03
2017-09-22T11:39:21.447Z,18.91
2017-09-22T11:41:50.542Z,19.32
2017-09-22T11:44:19.656Z,19.77
2017-09-22T11:46:49.038Z,19.85
2017-09-22T11:49:18.139Z,19.69
2017-09-22T11:51:47.259Z,19.40
2017-09-22T11:54:16.534Z,18.95
2017-09-22T11:56:45.631Z,18.91
2017-09-22T11:59:15.412Z,18.83
2017-09-22T12:01:45.534Z,18.47
2017-09-22T12:04:15.326Z,18.07
2017-09-22T12:06:44.474Z,17.99
2017-09-22T12:09:14.943Z,17.94
2017-09-22T12:11:44.043Z,18.02
2017-09-22T12:14:13.188Z,18.04
2017-09-22T12:16:43.089Z,18.38
2017-09-22T12:19:12.202Z,18.56
2017-09-22T12:21:41.296Z,18.74
2017-09-22T12:24:11.299Z,19.20
2017-09-22T12:26:40.458Z,19.57
2017-09-22T12:29:09.607Z,19.90
2017-09-22T12:31:39.174Z,20.04
2017-09-22T12:34:10.089Z,20.15
2017-09-22T12:36:39.312Z,19.72
2017-09-22T12:39:08.812Z,19.64
2017-09-22T12:41:38.726Z,20.20
2017-09-22T12:44:07.925Z,20.36
2017-09-22T12:46:37.532Z,20.68
2017-09-22T12:49:06.756Z,20.56
2017-09-22T12:51:36.797Z,20.97
2017-09-22T12:54:06.034Z,21.73
2017-09-22T12:56:39.019Z,22.23
2017-09-22T12:59:08.596Z,22.42
2017-09-22T13:01:38.536Z,22.65
2017-09-22T13:04:07.857Z,22.70
2017-09-22T13:06:37.295Z,22.41
2017-09-22T13:09:07.474Z,21.98
2017-09-22T13:11:36.775Z,21.70
2017-09-22T13:14:07.197Z,21.40
2017-09-22T13:16:37.455Z,21.14
2017-09-22T13:19:07.754Z,21.47
2017-09-22T13:21:40.460Z,21.60
2017-09-22T13:24:10.348Z,22.25
2017-09-22T13:26:41.671Z,22.77
2017-09-22T13:29:10.847Z,23.32
2017-09-22T13:31:40.075Z,23.21
2017-09-22T13:34:10.905Z,22.33
2017-09-22T13:36:40.113Z,21.50
2017-09-22T13:39:09.305Z,20.10
2017-09-22T13:41:38.727Z,19.56
2017-09-22T13:44:08.095Z,19.41
2017-09-22T13:46:37.392Z,19.61
2017-09-22T13:49:07.002Z,19.62
2017-09-22T13:51:36.963Z,19.76
2017-09-22T13:54:07.287Z,19.68
2017-09-22T13:56:36.685Z,19.49
2017-09-22T13:59:06.105Z,19.49
2017-09-22T14:01:35.784Z,19.37
2017-09-22T14:04:05.380Z,19.14
2017-09-22T14:06:35.629Z,19.10
2017-09-22T14:09:05.211Z,18.93
2017-09-22T14:11:34.449Z,18.62
2017-09-22T14:14:05.335Z,18.32
2017-09-22T14:16:34.839Z,17.97
2017-09-22T14:19:03.980Z,18.08
2017-09-22T14:21:33.255Z,18.41
2017-09-22T14:24:03.733Z,18.62
2017-09-22T14:26:34.356Z,18.39
2017-09-22T14:29:04.699Z,18.13
2017-09-22T14:31:34.817Z,18.00
2017-09-22T14:34:04.012Z,17.91
2017-09-22T14:36:34.381Z,17.99
2017-09-22T14:39:03.885Z,18.02
2017-09-22T14:41:33.091Z,17.62
2017-09-22T14:44:02.362Z,17.46
2017-09-22T14:46:34.182Z,17.57
2017-09-22T14:49:05.766Z,17.75
2017-09-22T14:51:39.247Z,17.84
2017-09-22T14:54:09.159Z,17.98
2017-09-22T14:56:38.315Z,18.13
2017-09-22T14:59:07.869Z,18.31
2017-09-22T15:01:37.055Z,18.29
2017-09-22T15:04:07.009Z,18.15
2017-09-22T15:06:36.547Z,18.10
2017-09-22T15:09:05.742Z,17.77
2017-09-22T15:11:34.951Z,17.29
2017-09-22T15:14:04.555Z,17.36
2017-09-22T15:16:34.666Z,17.50
2017-09-22T15:19:03.863Z,17.44
2017-09-22T15:21:34.193Z,17.34
2017-09-22T15:24:03.380Z,17.27
2017-09-22T15:26:32.550Z,17.16
2017-09-22T15:29:01.850Z,17.27
2017-09-22T15:31:31.939Z,17.34
2017-09-22T15:34:01.085Z,17.44
2017-09-22T15:36:30.413Z,17.42
2017-09-22T15:38:59.613Z,17.17
2017-09-22T15:41:28.734Z,17.04
2017-09-22T15:43:58.249Z,17.03
2017-09-22T15:46:27.508Z,17.09
2017-09-22T15:49:00.548Z,17.05
2017-09-22T15:51:48.157Z,16.89
2017-09-22T15:54:19.959Z,16.76
2017-09-22T15:56:49.254Z,16.71
2017-09-22T15:59:18.947Z,16.74
2017-09-22T16:01:48.045Z,16.86
2017-09-22T16:04:17.980Z,17.02
2017-09-22T16:06:47.139Z,17.14
2017-09-22T16:09:16.232Z,17.18
2017-09-22T16:11:45.559Z,17.21
2017-09-22T16:14:14.684Z,17.19
2017-09-22T16:16:43.798Z,17.08
2017-09-22T16:19:14.103Z,16.99
2017-09-22T16:21:43.202Z,16.94
2017-09-22T16:24:12.352Z,16.81
2017-09-22T16:26:42.367Z,16.79
2017-09-22T16:29:11.591Z,16.87
2017-09-22T16:31:41.577Z,16.81
2017-09-22T16:34:11.089Z,16.70
2017-09-22T16:36:40.359Z,16.59
2017-09-22T16:39:09.608Z,16.59
2017-09-22T16:41:39.012Z,16.60
2017-09-22T16:44:08.214Z,16.60
2017-09-22T16:46:37.550Z,16.57
2017-09-22T16:49:07.105Z,16.53
2017-09-22T16:51:36.431Z,16.52
2017-09-22T16:54:07.179Z,16.56
2017-09-22T16:56:39.121Z,16.56
2017-09-22T16:59:08.478Z,16.51
2017-09-22T17:01:37.612Z,16.41
2017-09-22T17:04:08.570Z,16.37
2017-09-22T17:06:37.838Z,16.37
2017-09-22T17:09:07.768Z,16.34
2017-09-22T17:11:37.845Z,16.23
2017-09-22T17:14:07.317Z,16.21
2017-09-22T17:16:37.492Z,16.21
2017-09-22T17:19:07.975Z,16.14
2017-09-22T17:21:37.273Z,16.14
2017-09-22T17:24:06.504Z,16.08
2017-09-22T17:26:35.717Z,16.03
2017-09-22T17:29:04.867Z,15.99
2017-09-22T17:31:35.113Z,15.94
2017-09-22T17:34:04.424Z,15.95
2017-09-22T17:36:33.719Z,15.90
2017-09-22T17:39:03.094Z,15.83
2017-09-22T17:41:32.610Z,15.84
2017-09-22T17:44:02.080Z,15.78
2017-09-22T17:46:31.648Z,15.71
2017-09-22T17:49:01.377Z,15.61
2017-09-22T17:51:31.597Z,15.49
2017-09-22T17:54:01.136Z,15.40
2017-09-22T17:56:32.290Z,15.32
2017-09-22T17:59:03.387Z,15.32
2017-09-22T18:01:32.827Z,15.20
2017-09-22T18:04:02.513Z,15.21
2017-09-22T18:06:31.765Z,15.25
2017-09-22T18:09:01.159Z,15.22
2017-09-22T18:11:30.848Z,15.23
2017-09-22T18:14:00.086Z,15.26
2017-09-22T18:16:29.266Z,15.25
2017-09-22T18:18:59.762Z,15.22
2017-09-22T18:21:28.985Z,15.27
2017-09-22T18:23:58.142Z,15.39
2017-09-22T18:26:28.075Z,15.43
2017-09-22T18:28:57.198Z,15.30
2017-09-22T18:31:26.298Z,15.22
2017-09-22T18:33:55.542Z,15.15
2017-09-22T18:36:25.001Z,15.22
2017-09-22T18:38:54.106Z,15.30
2017-09-22T18:41:23.543Z,15.23
2017-09-22T18:43:53.518Z,15.27
2017-09-22T18:46:22.680Z,15.35
2017-09-22T18:48:52.043Z,15.32
2017-09-22T18:51:21.238Z,15.38
2017-09-22T18:53:50.443Z,15.43
2017-09-22T18:56:19.876Z,15.41
2017-09-22T18:58:49.805Z,15.41
2017-09-22T19:01:18.936Z,15.43
2017-09-22T19:03:49.223Z,15.47
2017-09-22T19:06:18.348Z,15.49
2017-09-22T19:08:48.239Z,15.57
2017-09-22T19:11:17.714Z,15.58
2017-09-22T19:13:47.587Z,15.57
2017-09-22T19:16:17.904Z,15.58
2017-09-22T19:18:47.518Z,15.59
2017-09-22T19:21:16.634Z,15.64
2017-09-22T19:23:45.729Z,15.56
2017-09-22T19:26:15.560Z,15.46
2017-09-22T19:28:45.811Z,15.46
2017-09-22T19:31:14.975Z,15.50
2017-09-22T19:33:45.075Z,15.36
2017-09-22T19:36:14.969Z,15.30
2017-09-22T19:38:44.140Z,15.30
2017-09-22T19:41:13.544Z,15.26
2017-09-22T19:43:43.486Z,15.20
2017-09-22T19:46:13.245Z,15.21
2017-09-22T19:48:44.045Z,15.23
2017-09-22T19:51:13.179Z,15.25
2017-09-22T19:53:42.268Z,15.25
2017-09-22T19:56:11.768Z,15.25
2017-09-22T19:58:41.023Z,15.21
2017-09-22T20:01:10.164Z,15.17
2017-09-22T20:03:39.664Z,15.17
2017-09-22T20:06:09.601Z,15.16
2017-09-22T20:08:39.166Z,15.18
2017-09-22T20:11:09.077Z,15.22
2017-09-22T20:13:38.568Z,15.27
2017-09-22T20:16:07.719Z,15.21
2017-09-22T20:18:36.887Z,15.27
2017-09-22T20:21:06.397Z,15.29
2017-09-22T20:23:36.422Z,15.25
2017-09-22T20:26:05.638Z,15.25
2017-09-22T20:28:36.207Z,15.16
2017-09-22T20:31:05.338Z,15.11
2017-09-22T20:33:34.566Z,15.06
2017-09-22T20:36:04.169Z,15.10
2017-09-22T20:38:33.340Z,15.13
2017-09-22T20:41:04.333Z,15.13
2017-09-22T20:43:34.939Z,15.15
2017-09-22T20:46:04.153Z,15.17
2017-09-22T20:48:34.133Z,15.14
2017-09-22T20:51:03.685Z,15.14
2017-09-22T20:53:33.167Z,15.09
2017-09-22T20:56:02.492Z,15.11
2017-09-22T20:58:32.014Z,15.09
2017-09-22T21:01:02.066Z,15.13
2017-09-22T21:03:32.719Z,15.12
2017-09-22T21:06:02.485Z,15.18
2017-09-22T21:08:32.635Z,15.18
2017-09-22T21:11:03.230Z,15.19
2017-09-22T21:13:32.504Z,15.11
2017-09-22T21:16:01.779Z,15.09
2017-09-22T21:18:31.393Z,15.13
2017-09-22T21:21:02.735Z,15.16
2017-09-22T21:23:31.977Z,15.18
2017-09-22T21:26:01.654Z,14.99
2017-09-22T21:28:30.840Z,14.90
2017-09-22T21:31:00.449Z,14.77
2017-09-22T21:33:30.259Z,14.59
2017-09-22T21:36:01.078Z,14.49
2017-09-22T21:38:30.814Z,14.56
2017-09-22T21:41:00.479Z,14.58
2017-09-22T21:43:30.099Z,14.57
2017-09-22T21:46:00.856Z,14.54
2017-09-22T21:48:30.917Z,14.58
2017-09-22T21:51:00.934Z,14.57
2017-09-22T21:53:31.950Z,14.60
2017-09-22T21:56:01.245Z,14.52
2017-09-22T21:58:33.279Z,14.52
2017-09-22T22:01:04.162Z,14.41
2017-09-22T22:06:45.512Z,14.35
2017-09-22T22:09:15.392Z,14.36
2017-09-22T22:11:44.565Z,14.36
2017-09-22T22:14:13.898Z,14.34
2017-09-22T22:16:43.135Z,14.29
2017-09-22T22:19:12.318Z,14.31
2017-09-22T22:21:41.843Z,14.24
2017-09-22T22:24:11.013Z,14.17
2017-09-22T22:26:40.374Z,14.22
2017-09-22T22:29:10.439Z,14.30
2017-09-22T22:31:39.607Z,14.33
2017-09-22T22:34:08.788Z,14.34
2017-09-22T22:36:38.498Z,14.37
2017-09-22T22:39:07.724Z,14.43
2017-09-22T22:41:36.975Z,14.47
2017-09-22T22:44:06.493Z,14.49
2017-09-22T22:46:36.510Z,14.54
2017-09-22T22:49:14.038Z,14.56
2017-09-22T22:51:44.862Z,14.54
2017-09-22T22:54:14.375Z,14.52
2017-09-22T22:56:44.298Z,14.50
2017-09-22T22:59:13.482Z,14.49
2017-09-22T23:01:43.475Z,14.48
2017-09-22T23:04:12.684Z,14.50
2017-09-22T23:06:42.744Z,14.49
2017-09-22T23:09:12.847Z,14.47
2017-09-22T23:11:42.788Z,14.39
2017-09-22T23:14:12.140Z,14.30
2017-09-22T23:16:42.211Z,14.19
2017-09-22T23:19:11.397Z,14.15
2017-09-22T23:21:41.455Z,14.08
2017-09-22T23:24:10.827Z,14.03
2017-09-22T23:26:40.048Z,14.03
2017-09-22T23:29:09.253Z,14.04
2017-09-22T23:31:38.547Z,14.18
2017-09-22T23:34:08.985Z,14.11
2017-09-22T23:36:38.150Z,14.18
2017-09-22T23:39:08.232Z,14.16
2017-09-22T23:41:37.391Z,14.16
2017-09-22T23:44:06.549Z,14.15
2017-09-22T23:46:36.169Z,14.27
2017-09-22T23:49:05.471Z,14.29
2017-09-22T23:51:34.680Z,14.30
2017-09-22T23:54:04.713Z,14.28
2017-09-22T23:56:34.931Z,14.25
2017-09-22T23:59:04.214Z,14.23
